Time;durP1;ratioP1;P1;durP2;ratioP2;P2;SDS_P1;SDS_P2;PMS_P1;PMS_P2;Temp;Humidity;BMP_temperature;BMP_pressure;BME280_temperature;BME280_humidity;BME280_pressure;Samples;Min_cycle;Max_cycle;Signal;HPM_P1;HPM_P2
2023/09/14 00:01:28;;;;;;;1.83;0.88;;;;;;;15.58;nan;100454.09;10511476;28;20459;-61
2023/09/14 00:06:30;;;;;;;1.17;1.00;;;;;;;15.45;nan;100463.81;10506103;28;20047;-61
2023/09/14 00:11:32;;;;;;;1.83;1.02;;;;;;;15.29;nan;100455.31;10506209;28;20512;-61
2023/09/14 00:16:34;;;;;;;3.28;1.42;;;;;;;15.24;nan;100458.28;10517462;28;20044;-61
2023/09/14 00:21:38;;;;;;;1.27;0.93;;;;;;;15.09;nan;100459.34;10506730;28;20452;-61
2023/09/14 00:26:40;;;;;;;2.15;1.17;;;;;;;14.94;nan;100455.13;10518590;28;20048;-61
2023/09/14 00:31:42;;;;;;;2.28;1.02;;;;;;;14.88;nan;100463.47;10509191;28;20044;-61
2023/09/14 00:36:44;;;;;;;1.95;1.20;;;;;;;14.57;nan;100467.34;10518465;28;20121;-61
2023/09/14 00:41:47;;;;;;;1.60;0.88;;;;;;;14.58;nan;100470.84;10518963;28;20105;-61
2023/09/14 00:46:49;;;;;;;2.65;1.50;;;;;;;14.55;nan;100463.16;10520753;28;20140;-61
2023/09/14 00:51:51;;;;;;;1.73;0.80;;;;;;;14.52;nan;100466.84;10524694;28;20051;-61
2023/09/14 00:56:53;;;;;;;3.70;1.10;;;;;;;14.49;nan;100471.47;10519613;28;20505;-61
2023/09/14 01:01:55;;;;;;;2.33;1.30;;;;;;;14.40;nan;100472.91;10537626;28;20531;-61
2023/09/14 01:06:57;;;;;;;2.83;0.98;;;;;;;14.31;nan;100484.03;10523225;28;20044;-61
2023/09/14 01:11:59;;;;;;;2.10;1.05;;;;;;;14.33;nan;100470.78;10517884;28;20070;-61
2023/09/14 01:17:12;;;;;;;1.88;1.25;;;;;;;14.45;nan;100473.41;10514659;28;20048;-61
2023/09/14 01:22:21;;;;;;;1.85;1.00;;;;;;;14.63;nan;100471.38;10513498;28;20051;-61
2023/09/14 01:27:24;;;;;;;2.50;1.00;;;;;;;14.64;nan;100467.78;10510636;28;20047;-61
2023/09/14 01:32:27;;;;;;;4.32;1.27;;;;;;;14.73;nan;100474.22;10514824;28;20421;-61
2023/09/14 01:37:29;;;;;;;1.13;0.95;;;;;;;14.84;nan;100472.53;10510907;28;20116;-61
2023/09/14 01:42:31;;;;;;;1.08;0.85;;;;;;;14.82;nan;100465.72;10526265;28;20051;-61
2023/09/14 01:47:33;;;;;;;1.48;1.00;;;;;;;14.84;nan;100472.53;10517778;28;20399;-61
2023/09/14 01:52:36;;;;;;;1.90;1.10;;;;;;;14.59;nan;100476.00;10507227;28;20166;-61
2023/09/14 01:57:38;;;;;;;3.35;1.55;;;;;;;14.40;nan;100478.16;10514971;28;20118;-61
2023/09/14 02:02:41;;;;;;;1.33;0.90;;;;;;;14.22;nan;100474.13;10530618;28;20059;-61
2023/09/14 02:07:43;;;;;;;2.72;1.20;;;;;;;14.09;nan;100478.50;10526480;28;20178;-61
2023/09/14 02:12:45;;;;;;;1.77;1.10;;;;;;;14.09;nan;100488.16;10521422;28;20051;-61
2023/09/14 02:17:47;;;;;;;1.15;0.98;;;;;;;13.96;nan;100485.50;10517201;28;20679;-61
2023/09/14 02:22:49;;;;;;;1.88;1.00;;;;;;;13.94;nan;100481.28;10529189;28;20048;-61
2023/09/14 02:27:51;;;;;;;1.27;1.15;;;;;;;13.81;nan;100483.00;10520592;28;20052;-60
2023/09/14 02:32:53;;;;;;;1.90;0.90;;;;;;;13.68;nan;100482.94;10526686;28;20380;-61
2023/09/14 02:37:55;;;;;;;3.28;1.10;;;;;;;13.59;nan;100497.53;10523210;28;20048;-61
2023/09/14 02:42:58;;;;;;;1.45;0.90;;;;;;;13.44;nan;100490.59;10525295;28;20203;-61
2023/09/14 02:48:00;;;;;;;2.03;0.95;;;;;;;13.44;nan;100501.13;10535881;28;20047;-61
2023/09/14 02:53:02;;;;;;;1.55;1.00;;;;;;;13.34;nan;100504.38;10517150;28;20040;-61
2023/09/14 02:58:08;;;;;;;2.03;1.13;;;;;;;13.24;nan;100513.75;10527416;28;20576;-61
2023/09/14 03:03:10;;;;;;;0.90;0.90;;;;;;;13.18;nan;100506.25;10497930;28;20056;-61
2023/09/14 03:08:14;;;;;;;1.25;0.80;;;;;;;13.13;nan;100500.47;10512173;28;20135;-61
2023/09/14 03:13:16;;;;;;;0.95;0.80;;;;;;;13.02;nan;100508.13;10513250;28;20044;-61
2023/09/14 03:18:19;;;;;;;0.95;0.90;;;;;;;13.11;nan;100507.59;10505350;28;20040;-61
2023/09/14 03:23:22;;;;;;;0.98;0.80;;;;;;;13.17;nan;100508.03;10511441;28;20035;-61
2023/09/14 03:28:25;;;;;;;1.17;0.90;;;;;;;13.10;nan;100517.25;10515577;28;20052;-61
2023/09/14 03:33:28;;;;;;;1.80;1.00;;;;;;;13.08;nan;100524.38;10526396;28;20047;-61
2023/09/14 03:38:30;;;;;;;2.75;1.00;;;;;;;13.15;nan;100524.84;10512984;28;20077;-61
2023/09/14 03:43:32;;;;;;;17.92;1.17;;;;;;;13.17;nan;100528.22;10521198;28;20070;-61
2023/09/14 03:48:35;;;;;;;1.83;1.20;;;;;;;13.14;nan;100516.09;10504605;28;20559;-61
2023/09/14 03:53:38;;;;;;;1.08;0.85;;;;;;;13.16;nan;100529.13;10508631;28;20503;-61
2023/09/14 03:58:42;;;;;;;1.17;0.90;;;;;;;12.90;nan;100526.28;10512179;28;20460;-61
2023/09/14 04:03:45;;;;;;;1.10;0.90;;;;;;;12.96;nan;100531.19;10518402;28;20096;-61
2023/09/14 04:08:47;;;;;;;1.45;0.90;;;;;;;13.08;nan;100529.63;10504280;28;20048;-61
2023/09/14 04:13:49;;;;;;;2.58;0.98;;;;;;;13.13;nan;100534.59;10519644;28;20407;-62
2023/09/14 04:18:51;;;;;;;15.75;1.73;;;;;;;13.02;nan;100531.75;10523675;28;20036;-61
2023/09/14 04:23:53;;;;;;;0.88;0.80;;;;;;;13.05;nan;100534.22;10521487;28;20044;-61
2023/09/14 04:28:55;;;;;;;1.63;0.90;;;;;;;13.11;nan;100536.47;10518530;28;20055;-62
2023/09/14 04:33:57;;;;;;;15.32;1.35;;;;;;;13.05;nan;100542.09;10511781;28;20282;-62
2023/09/14 04:39:00;;;;;;;34.78;1.90;;;;;;;13.01;nan;100543.19;10511029;28;20086;-62
2023/09/14 04:44:02;;;;;;;1.25;1.15;;;;;;;12.98;nan;100546.88;10515169;28;20041;-62
2023/09/14 04:49:05;;;;;;;25.10;1.83;;;;;;;13.00;nan;100555.50;10511460;28;20114;-62
2023/09/14 04:54:07;;;;;;;24.42;1.92;;;;;;;13.05;nan;100549.97;10511551;28;20087;-62
2023/09/14 04:59:09;;;;;;;5.75;1.55;;;;;;;13.04;nan;100553.53;10528958;28;20050;-62
2023/09/14 05:04:11;;;;;;;0.70;0.70;;;;;;;13.14;nan;100550.25;10521917;28;20479;-62
2023/09/14 05:09:13;;;;;;;18.02;1.27;;;;;;;13.19;nan;100565.75;10510748;28;20053;-61
2023/09/14 05:14:15;;;;;;;11.98;1.35;;;;;;;13.19;nan;100571.00;10495913;28;20082;-62
2023/09/14 05:19:18;;;;;;;39.33;2.35;;;;;;;13.04;nan;100572.75;10510969;28;20083;-62
2023/09/14 05:24:20;;;;;;;4.43;1.10;;;;;;;13.08;nan;100573.41;10502249;28;20922;-62
2023/09/14 05:29:22;;;;;;;4.82;1.00;;;;;;;13.28;nan;100579.16;10511937;28;20051;-62
2023/09/14 05:34:25;;;;;;;7.95;1.10;;;;;;;13.23;nan;100572.50;10513095;28;20044;-62
2023/09/14 05:39:27;;;;;;;7.60;1.27;;;;;;;13.25;nan;100571.44;10509607;28;20385;-62
2023/09/14 05:44:29;;;;;;;1.45;0.95;;;;;;;13.38;nan;100576.81;10541600;27;20414;-62
2023/09/14 05:49:32;;;;;;;1.83;1.13;;;;;;;13.48;nan;100580.59;10516261;28;20043;-63
2023/09/14 05:54:36;;;;;;;34.20;2.05;;;;;;;13.49;nan;100582.28;10515220;28;20495;-62
2023/09/14 05:59:38;;;;;;;4.70;1.38;;;;;;;13.37;nan;100581.19;10505985;28;20230;-61
2023/09/14 06:04:41;;;;;;;2.28;1.30;;;;;;;13.54;nan;100581.06;10512970;28;20129;-62
2023/09/14 06:09:43;;;;;;;13.13;2.53;;;;;;;13.78;nan;100583.94;10514295;28;20417;-61
2023/09/14 06:14:46;;;;;;;13.23;2.20;;;;;;;13.85;nan;100587.03;10516023;28;20036;-63
2023/09/14 06:19:48;;;;;;;5.10;1.83;;;;;;;13.72;nan;100594.84;10514544;28;20071;-63
2023/09/14 06:24:51;;;;;;;34.40;2.53;;;;;;;13.97;nan;100599.41;10511803;28;20492;-63
2023/09/14 06:29:56;;;;;;;3.95;1.90;;;;;;;14.04;nan;100601.56;10522175;28;20043;-63
2023/09/14 06:35:00;;;;;;;2.72;1.35;;;;;;;14.13;nan;100603.59;10513035;28;20146;-63
2023/09/14 06:40:05;;;;;;;2.17;1.40;;;;;;;14.11;nan;100607.25;10517888;28;20058;-63
2023/09/14 06:45:08;;;;;;;27.38;2.30;;;;;;;14.07;nan;100613.66;10511508;28;20686;-63
2023/09/14 06:50:10;;;;;;;9.00;2.83;;;;;;;14.16;nan;100611.31;10500061;28;20310;-63
2023/09/14 06:55:12;;;;;;;7.30;2.20;;;;;;;14.29;nan;100619.25;10526894;28;20126;-63
2023/09/14 07:00:15;;;;;;;5.03;2.10;;;;;;;14.46;nan;100625.13;10506253;28;20043;-63
2023/09/14 07:05:18;;;;;;;9.45;2.05;;;;;;;14.55;nan;100618.47;10530495;28;20371;-63
2023/09/14 07:10:20;;;;;;;2.63;1.67;;;;;;;14.45;nan;100628.69;10515198;28;20123;-63
2023/09/14 07:15:22;;;;;;;6.05;1.73;;;;;;;14.70;nan;100627.13;10515380;28;20134;-63
2023/09/14 07:20:25;;;;;;;31.00;2.10;;;;;;;14.84;nan;100640.25;10522109;28;20480;-63
2023/09/14 07:25:30;;;;;;;32.00;2.05;;;;;;;14.83;nan;100631.50;10511278;28;20094;-63
2023/09/14 07:30:34;;;;;;;4.50;1.63;;;;;;;15.08;nan;100622.81;10512728;28;20115;-63
2023/09/14 07:35:41;;;;;;;2.70;1.40;;;;;;;15.60;nan;100620.94;10532198;28;20044;-63
2023/09/14 07:40:43;;;;;;;3.55;2.05;;;;;;;15.92;nan;100632.72;10523051;28;20050;-63
2023/09/14 07:45:45;;;;;;;4.32;1.88;;;;;;;15.92;nan;100631.88;10510712;28;20036;-63
2023/09/14 07:50:48;;;;;;;5.43;2.63;;;;;;;16.13;nan;100631.19;10524831;28;20048;-63
2023/09/14 07:55:52;;;;;;;4.70;2.15;;;;;;;16.21;nan;100628.84;10506479;28;20404;-63
2023/09/14 08:00:54;;;;;;;4.63;1.60;;;;;;;15.95;nan;100642.22;10524768;28;20043;-63
2023/09/14 08:05:57;;;;;;;5.22;2.65;;;;;;;15.68;nan;100638.88;10527858;28;20631;-63
2023/09/14 08:11:00;;;;;;;3.10;1.73;;;;;;;16.08;nan;100637.78;10517563;28;20429;-62
2023/09/14 08:16:03;;;;;;;2.67;1.73;;;;;;;16.23;nan;100637.50;10511547;28;20115;-63
2023/09/14 08:21:05;;;;;;;2.90;1.60;;;;;;;15.74;nan;100646.34;10509298;28;20129;-63
2023/09/14 08:26:07;;;;;;;3.85;2.05;;;;;;;15.88;nan;100652.34;10515383;28;20071;-62
2023/09/14 08:31:09;;;;;;;3.45;1.85;;;;;;;16.20;nan;100653.53;10524176;28;20067;-63
2023/09/14 08:36:12;;;;;;;5.18;2.08;;;;;;;16.20;nan;100655.38;10511273;28;20139;-63
2023/09/14 08:41:35;;;;;;;3.50;1.90;;;;;;;16.49;nan;100648.03;10510264;28;20131;-63
2023/09/14 08:46:39;;;;;;;3.70;1.85;;;;;;;16.24;nan;100641.81;10507938;28;20131;-63
2023/09/14 08:51:43;;;;;;;5.85;2.00;;;;;;;16.65;nan;100640.66;10508044;28;20257;-63
2023/09/14 08:56:46;;;;;;;3.60;1.90;;;;;;;17.02;nan;100634.28;10513732;28;20216;-63
2023/09/14 09:01:49;;;;;;;4.82;2.17;;;;;;;17.61;nan;100630.59;10525438;28;20123;-63
2023/09/14 09:06:52;;;;;;;3.42;1.77;;;;;;;18.11;nan;100628.44;10521779;28;20052;-63
2023/09/14 09:11:54;;;;;;;3.53;1.92;;;;;;;18.52;nan;100628.59;10526116;28;20501;-63
2023/09/14 09:16:57;;;;;;;5.20;1.73;;;;;;;18.48;nan;100628.00;10521760;28;20140;-63
2023/09/14 09:22:01;;;;;;;5.80;2.00;;;;;;;18.20;nan;100631.19;10521687;28;20130;-63
2023/09/14 09:27:23;;;;;;;5.90;1.75;;;;;;;18.05;nan;100626.25;10520644;28;20127;-63
2023/09/14 09:32:25;;;;;;;6.25;1.80;;;;;;;18.39;nan;100622.63;10514086;28;20042;-63
2023/09/14 09:37:34;;;;;;;3.85;2.03;;;;;;;18.75;nan;100613.47;10517796;28;20504;-63
2023/09/14 09:42:36;;;;;;;3.40;1.58;;;;;;;19.28;nan;100607.16;10527198;28;20123;-63
2023/09/14 09:47:40;;;;;;;3.10;1.55;;;;;;;19.66;nan;100611.84;10520363;28;20474;-63
2023/09/14 09:52:46;;;;;;;3.30;1.63;;;;;;;19.56;nan;100603.00;10520864;28;20588;-63
2023/09/14 09:57:53;;;;;;;3.08;1.42;;;;;;;19.56;nan;100595.91;10517116;28;20119;-63
2023/09/14 10:02:55;;;;;;;3.00;1.35;;;;;;;19.98;nan;100588.66;10516662;28;20044;-63
2023/09/14 10:07:59;;;;;;;2.78;1.30;;;;;;;20.15;nan;100588.00;10512343;28;20538;-63
2023/09/14 10:13:04;;;;;;;3.35;1.30;;;;;;;20.16;nan;100584.38;10509967;28;20450;-63
2023/09/14 10:18:07;;;;;;;3.00;1.45;;;;;;;20.20;nan;100588.44;10522489;28;20089;-63
2023/09/14 10:23:11;;;;;;;2.03;1.20;;;;;;;20.02;nan;100582.09;10515206;28;20053;-63
2023/09/14 10:28:15;;;;;;;2.25;1.25;;;;;;;20.10;nan;100568.97;10525854;28;20047;-63
2023/09/14 10:33:18;;;;;;;2.17;1.10;;;;;;;20.47;nan;100572.66;10512083;28;20040;-63
2023/09/14 10:38:23;;;;;;;3.03;1.20;;;;;;;20.55;nan;100559.53;10511312;28;20075;-63
2023/09/14 10:43:25;;;;;;;2.15;1.15;;;;;;;20.32;nan;100563.41;10513018;28;20051;-63
2023/09/14 10:48:29;;;;;;;4.07;1.20;;;;;;;20.19;nan;100557.56;10511528;28;20055;-62
2023/09/14 10:53:32;;;;;;;2.70;1.10;;;;;;;20.28;nan;100557.56;10512215;28;20059;-63
2023/09/14 10:58:41;;;;;;;3.92;1.00;;;;;;;20.16;nan;100558.66;10519953;28;20043;-63
2023/09/14 11:04:05;;;;;;;3.92;1.00;;;;;;;20.16;nan;100548.03;10518516;28;20115;-64
2023/09/14 11:09:07;;;;;;;2.05;1.10;;;;;;;20.16;nan;100547.19;10516256;28;20044;-63
2023/09/14 11:14:14;;;;;;;6.68;1.33;;;;;;;20.01;nan;100548.56;10524603;28;20043;-63
2023/09/14 11:19:29;;;;;;;3.35;1.60;;;;;;;19.98;nan;100533.75;10509187;28;20381;-63
2023/09/14 11:24:45;;;;;;;2.08;1.00;;;;;;;20.14;nan;100533.22;10516545;28;20370;-63
2023/09/14 11:29:47;;;;;;;2.85;1.02;;;;;;;20.39;nan;100532.69;10519274;28;20411;-63
2023/09/14 11:34:56;;;;;;;2.85;1.10;;;;;;;20.45;nan;100518.84;10508427;28;20209;-63
2023/09/14 11:40:03;;;;;;;3.33;1.42;;;;;;;20.50;nan;100519.22;10505175;28;20475;-63
2023/09/14 11:45:08;;;;;;;2.33;1.10;;;;;;;20.59;nan;100521.09;10526506;28;20043;-63
2023/09/14 11:50:14;;;;;;;2.05;1.08;;;;;;;20.42;nan;100520.94;10517656;28;20122;-63
2023/09/14 11:55:19;;;;;;;2.20;1.15;;;;;;;20.26;nan;100516.16;10515927;28;20139;-63
2023/09/14 12:00:22;;;;;;;2.85;1.00;;;;;;;20.71;nan;100511.97;10512867;28;20051;-64
2023/09/14 12:05:24;;;;;;;3.97;1.13;;;;;;;20.87;nan;100509.56;10516985;28;20390;-63
2023/09/14 12:10:26;;;;;;;2.70;1.13;;;;;;;20.97;nan;100510.38;10505950;28;20082;-63
2023/09/14 12:15:30;;;;;;;2.63;1.00;;;;;;;20.82;nan;100498.53;10502479;28;20051;-63
2023/09/14 12:20:35;;;;;;;2.40;1.00;;;;;;;21.20;nan;100497.56;10510811;28;20036;-63
2023/09/14 12:25:41;;;;;;;2.10;1.08;;;;;;;21.57;nan;100500.25;10507359;28;20606;-63
2023/09/14 12:30:43;;;;;;;2.88;1.42;;;;;;;21.95;nan;100494.69;10510943;28;20140;-63
2023/09/14 12:35:47;;;;;;;3.03;1.30;;;;;;;22.26;nan;100480.03;10512955;28;20043;-63
2023/09/14 12:40:50;;;;;;;1.45;0.80;;;;;;;22.16;nan;100492.59;10525149;28;20219;-63
2023/09/14 12:45:52;;;;;;;2.42;1.20;;;;;;;22.22;nan;100486.66;10523122;28;20043;-63
2023/09/14 12:50:58;;;;;;;1.85;1.00;;;;;;;22.59;nan;100483.81;10514577;28;20047;-63
2023/09/14 12:56:02;;;;;;;2.60;0.90;;;;;;;22.72;nan;100472.75;10514042;28;20473;-63
2023/09/14 13:01:08;;;;;;;2.83;0.93;;;;;;;22.70;nan;100460.41;10518475;28;20407;-63
2023/09/14 13:06:10;;;;;;;2.47;1.17;;;;;;;22.81;nan;100462.00;10513203;28;20526;-63
2023/09/14 13:11:31;;;;;;;2.08;1.10;;;;;;;22.22;nan;100453.84;10520340;28;20052;-63
2023/09/14 13:16:34;;;;;;;3.20;1.10;;;;;;;22.04;nan;100453.88;10521599;28;20036;-63
2023/09/14 13:21:36;;;;;;;3.97;1.23;;;;;;;21.72;nan;100454.31;10492943;28;20044;-63
2023/09/14 13:26:38;;;;;;;2.80;0.82;;;;;;;21.83;nan;100453.28;10513144;28;20131;-63
2023/09/14 13:31:41;;;;;;;2.08;1.00;;;;;;;21.40;nan;100453.97;10525043;28;20063;-63
2023/09/14 13:36:43;;;;;;;2.65;1.15;;;;;;;21.08;nan;100446.38;10522228;28;20645;-63
2023/09/14 13:41:45;;;;;;;2.10;1.05;;;;;;;20.33;nan;100447.38;10516772;28;20059;-63
2023/09/14 13:46:50;;;;;;;1.77;1.17;;;;;;;20.03;nan;100448.38;10523361;28;20052;-63
2023/09/14 13:51:52;;;;;;;4.55;1.40;;;;;;;20.02;nan;100446.69;10520001;28;20079;-63
2023/09/14 13:56:54;;;;;;;2.15;1.20;;;;;;;20.47;nan;100438.97;10520854;28;20119;-62
2023/09/14 14:01:56;;;;;;;3.58;1.00;;;;;;;20.54;nan;100430.28;10526660;28;20449;-62
2023/09/14 14:06:59;;;;;;;2.55;1.05;;;;;;;20.90;nan;100426.88;10520814;28;20047;-62
2023/09/14 14:12:02;;;;;;;1.52;0.80;;;;;;;21.09;nan;100424.13;10521596;28;20048;-62
2023/09/14 14:17:04;;;;;;;2.17;1.23;;;;;;;21.17;nan;100419.91;10514298;28;20058;-62
2023/09/14 14:22:06;;;;;;;2.33;1.02;;;;;;;21.42;nan;100412.06;10521256;28;20035;-62
2023/09/14 14:27:08;;;;;;;1.73;1.00;;;;;;;21.64;nan;100405.50;10511733;28;20516;-63
2023/09/14 14:32:10;;;;;;;2.03;1.27;;;;;;;21.63;nan;100404.66;10508768;28;20708;-62
2023/09/14 14:37:12;;;;;;;2.22;1.10;;;;;;;21.78;nan;100403.13;10513268;28;20035;-63
2023/09/14 14:42:15;;;;;;;2.13;1.20;;;;;;;21.88;nan;100389.78;10518144;28;20169;-62
2023/09/14 14:47:18;;;;;;;2.90;1.10;;;;;;;22.08;nan;100382.47;10514209;28;20045;-62
2023/09/14 14:52:21;;;;;;;2.03;1.10;;;;;;;21.50;nan;100392.69;10522020;28;20050;-62
2023/09/14 14:57:23;;;;;;;2.60;1.10;;;;;;;21.04;nan;100397.13;10510133;28;20040;-63
2023/09/14 15:02:25;;;;;;;1.98;1.02;;;;;;;20.86;nan;100393.59;10508468;28;20153;-62
2023/09/14 15:07:27;;;;;;;1.73;0.90;;;;;;;20.98;nan;100391.56;10513853;28;20044;-62
2023/09/14 15:12:30;;;;;;;3.40;1.20;;;;;;;20.94;nan;100393.69;10524620;28;20507;-63
2023/09/14 15:17:33;;;;;;;2.58;1.25;;;;;;;20.90;nan;100387.00;10520130;28;20652;-63
2023/09/14 15:22:36;;;;;;;7.97;1.10;;;;;;;21.13;nan;100383.94;10521941;28;20097;-62
2023/09/14 15:27:39;;;;;;;2.28;1.08;;;;;;;21.00;nan;100387.78;10506312;28;20047;-62
2023/09/14 15:32:43;;;;;;;2.35;1.20;;;;;;;20.82;nan;100380.72;10506861;28;20072;-63
2023/09/14 15:37:45;;;;;;;2.47;1.00;;;;;;;20.77;nan;100373.19;10510169;28;20285;-63
2023/09/14 15:42:47;;;;;;;5.55;1.52;;;;;;;20.70;nan;100382.69;10513278;28;20044;-62
2023/09/14 15:47:51;;;;;;;3.15;1.40;;;;;;;20.59;nan;100380.25;10509234;28;20868;-63
2023/09/14 15:52:53;;;;;;;1.42;1.10;;;;;;;20.43;nan;100371.16;10516075;28;20097;-63
2023/09/14 15:57:56;;;;;;;3.90;1.10;;;;;;;20.47;nan;100373.38;10510764;28;20677;-62
2023/09/14 16:02:58;;;;;;;1.38;1.00;;;;;;;20.53;nan;100371.97;10505201;28;20291;-62
2023/09/14 16:08:05;;;;;;;1.90;1.10;;;;;;;20.55;nan;100377.97;10523250;28;20044;-63
2023/09/14 16:13:10;;;;;;;2.47;1.10;;;;;;;20.42;nan;100370.31;10516944;28;20039;-63
2023/09/14 16:18:12;;;;;;;3.20;1.17;;;;;;;20.47;nan;100375.19;10516782;28;20044;-63
2023/09/14 16:23:14;;;;;;;5.00;1.23;;;;;;;20.41;nan;100376.63;10524605;28;20051;-63
2023/09/14 16:28:16;;;;;;;1.42;0.90;;;;;;;20.14;nan;100369.41;10521689;28;20069;-63
2023/09/14 16:33:18;;;;;;;3.10;1.20;;;;;;;20.02;nan;100369.69;10514029;28;20083;-62
2023/09/14 16:38:23;;;;;;;2.85;1.10;;;;;;;20.14;nan;100365.91;10511755;28;20055;-63
2023/09/14 16:43:25;;;;;;;2.05;1.00;;;;;;;20.16;nan;100366.59;10515210;28;20083;-63
2023/09/14 16:48:28;;;;;;;3.80;1.10;;;;;;;20.13;nan;100365.06;10518289;28;20757;-63
2023/09/14 16:53:30;;;;;;;2.47;1.17;;;;;;;20.07;nan;100360.31;10520032;28;20188;-63
2023/09/14 16:58:32;;;;;;;1.20;1.00;;;;;;;20.03;nan;100358.09;10522547;28;20144;-63
2023/09/14 17:03:35;;;;;;;2.33;1.00;;;;;;;19.92;nan;100364.41;10522109;28;20134;-62
2023/09/14 17:08:38;;;;;;;1.77;1.00;;;;;;;19.71;nan;100368.13;10508300;28;20452;-62
2023/09/14 17:13:40;;;;;;;1.25;1.02;;;;;;;19.62;nan;100374.28;10505188;28;20127;-62
2023/09/14 17:18:46;;;;;;;1.63;1.02;;;;;;;19.52;nan;100371.63;10497072;28;20051;-63
2023/09/14 17:23:49;;;;;;;4.05;1.02;;;;;;;19.37;nan;100373.81;10511238;28;20198;-63
2023/09/14 17:28:51;;;;;;;2.95;1.40;;;;;;;19.11;nan;100377.09;10513785;28;20138;-62
2023/09/14 17:33:54;;;;;;;2.58;1.02;;;;;;;18.87;nan;100373.91;10515214;28;20564;-63
2023/09/14 17:38:58;;;;;;;1.17;0.80;;;;;;;18.65;nan;100380.22;10512742;28;20044;-62
2023/09/14 17:44:00;;;;;;;1.60;0.82;;;;;;;18.50;nan;100381.56;10518422;28;20452;-62
2023/09/14 17:49:05;;;;;;;1.95;1.10;;;;;;;18.35;nan;100377.56;10513127;28;20158;-63
2023/09/14 17:54:07;;;;;;;1.95;1.10;;;;;;;18.16;nan;100380.03;10512116;28;20398;-62
2023/09/14 17:59:10;;;;;;;1.98;1.20;;;;;;;17.89;nan;100380.56;10519852;28;20036;-62
2023/09/14 18:04:13;;;;;;;2.83;1.27;;;;;;;17.66;nan;100387.72;10508431;28;20577;-62
2023/09/14 18:09:16;;;;;;;1.60;1.00;;;;;;;17.28;nan;100392.59;10515210;28;21007;-62
2023/09/14 18:14:18;;;;;;;3.05;1.20;;;;;;;17.10;nan;100396.69;10509672;28;21687;-62
2023/09/14 18:19:20;;;;;;;3.97;1.05;;;;;;;16.92;nan;100400.78;10515083;28;20141;-62
2023/09/14 18:24:23;;;;;;;3.53;1.25;;;;;;;16.74;nan;100402.22;10515483;28;20134;-62
2023/09/14 18:29:25;;;;;;;2.63;1.30;;;;;;;16.54;nan;100402.94;10505950;28;20516;-62
2023/09/14 18:34:28;;;;;;;3.83;1.25;;;;;;;16.47;nan;100407.03;10516662;28;20127;-62
2023/09/14 18:39:30;;;;;;;1.50;1.10;;;;;;;16.41;nan;100402.16;10510581;28;20075;-62
2023/09/14 18:44:33;;;;;;;1.90;1.27;;;;;;;16.30;nan;100404.78;10512801;28;20602;-62
2023/09/14 18:49:35;;;;;;;4.55;1.40;;;;;;;16.19;nan;100409.06;10523904;28;20047;-62
2023/09/14 18:54:37;;;;;;;6.30;1.60;;;;;;;16.09;nan;100413.38;10513288;28;20040;-62
2023/09/14 18:59:40;;;;;;;2.80;1.30;;;;;;;15.92;nan;100416.41;10497016;28;20396;-62
2023/09/14 19:04:43;;;;;;;2.10;1.00;;;;;;;15.89;nan;100424.56;10513324;28;20044;-62
2023/09/14 19:09:45;;;;;;;3.38;1.10;;;;;;;15.83;nan;100434.72;10519108;27;20040;-62
2023/09/14 19:14:48;;;;;;;4.25;1.30;;;;;;;15.49;nan;100438.94;10507734;28;20040;-62
2023/09/14 19:19:51;;;;;;;6.45;2.33;;;;;;;15.40;nan;100439.59;10515042;28;20055;-62
2023/09/14 19:24:53;;;;;;;3.55;1.40;;;;;;;15.43;nan;100440.19;10504656;28;20440;-62
2023/09/14 19:29:55;;;;;;;2.30;1.23;;;;;;;15.27;nan;100438.75;10506732;28;20044;-62
2023/09/14 19:34:58;;;;;;;2.13;1.35;;;;;;;15.25;nan;100440.66;10503097;28;20047;-62
2023/09/14 19:40:00;;;;;;;4.13;1.25;;;;;;;15.06;nan;100435.03;10509500;28;20044;-62
2023/09/14 19:45:03;;;;;;;2.42;1.20;;;;;;;14.94;nan;100441.97;10509989;28;20433;-62
2023/09/14 19:50:07;;;;;;;3.75;0.98;;;;;;;14.94;nan;100441.16;10508023;28;20035;-62
2023/09/14 19:55:11;;;;;;;2.08;1.10;;;;;;;14.90;nan;100451.03;10504264;28;20041;-62
2023/09/14 20:00:14;;;;;;;2.63;1.20;;;;;;;14.51;nan;100448.53;10510802;28;20333;-62
2023/09/14 20:05:20;;;;;;;1.52;0.95;;;;;;;14.21;nan;100448.75;10511317;28;20031;-62
2023/09/14 20:10:26;;;;;;;4.30;1.15;;;;;;;14.12;nan;100451.16;10509790;28;20044;-62
2023/09/14 20:15:29;;;;;;;1.67;1.00;;;;;;;14.05;nan;100445.44;10506227;28;20048;-62
2023/09/14 20:20:32;;;;;;;5.57;1.75;;;;;;;14.11;nan;100450.31;10508533;28;20043;-62
2023/09/14 20:25:36;;;;;;;1.42;1.10;;;;;;;14.05;nan;100439.34;10509576;28;20119;-62
2023/09/14 20:30:38;;;;;;;1.58;1.10;;;;;;;14.06;nan;100441.88;10506195;28;20124;-61
2023/09/14 20:35:40;;;;;;;2.80;1.20;;;;;;;14.12;nan;100446.75;10504751;28;20036;-62
2023/09/14 20:40:43;;;;;;;1.88;1.20;;;;;;;14.10;nan;100453.88;10507258;28;20115;-62
2023/09/14 20:45:45;;;;;;;2.70;1.30;;;;;;;13.96;nan;100450.47;10504084;28;20048;-62
2023/09/14 20:50:48;;;;;;;1.92;1.17;;;;;;;13.94;nan;100447.94;10514112;28;20174;-62
2023/09/14 20:55:53;;;;;;;2.15;1.15;;;;;;;13.67;nan;100437.44;10515134;28;20044;-63
2023/09/14 21:00:55;;;;;;;2.15;1.42;;;;;;;13.48;nan;100439.53;10532287;28;20047;-62
2023/09/14 21:05:59;;;;;;;3.05;1.55;;;;;;;13.46;nan;100436.16;10525271;28;20081;-62
2023/09/14 21:11:07;;;;;;;1.85;1.10;;;;;;;13.47;nan;100435.25;10510454;28;20074;-62
2023/09/14 21:16:09;;;;;;;1.70;1.20;;;;;;;13.31;nan;100436.28;10525066;28;20158;-62
2023/09/14 21:21:11;;;;;;;5.32;1.52;;;;;;;13.39;nan;100428.75;10512993;28;20052;-62
2023/09/14 21:26:14;;;;;;;1.83;1.10;;;;;;;13.41;nan;100434.75;10515911;28;20040;-62
2023/09/14 21:31:16;;;;;;;3.22;1.58;;;;;;;13.34;nan;100436.06;10519701;28;20047;-61
2023/09/14 21:36:18;;;;;;;2.58;1.60;;;;;;;13.32;nan;100435.31;10513179;28;20445;-62
2023/09/14 21:41:20;;;;;;;1.48;1.10;;;;;;;13.15;nan;100422.41;10514593;28;20123;-62
2023/09/14 21:46:23;;;;;;;2.47;1.30;;;;;;;13.19;nan;100416.03;10513123;28;20448;-62
2023/09/14 21:51:25;;;;;;;1.63;1.20;;;;;;;13.18;nan;100423.06;10518578;28;20119;-62
2023/09/14 21:56:27;;;;;;;2.13;1.33;;;;;;;13.11;nan;100426.19;10512365;28;20048;-62
2023/09/14 22:01:29;;;;;;;2.95;1.30;;;;;;;13.06;nan;100420.34;10522819;28;20479;-61
2023/09/14 22:06:31;;;;;;;3.30;1.45;;;;;;;13.09;nan;100413.13;10522699;28;20451;-62
2023/09/14 22:11:35;;;;;;;2.30;1.40;;;;;;;12.91;nan;100417.75;10517414;28;20137;-62
2023/09/14 22:16:39;;;;;;;1.90;1.00;;;;;;;12.75;nan;100424.88;10515149;28;20076;-62
2023/09/14 22:21:43;;;;;;;2.85;1.35;;;;;;;12.80;nan;100414.09;10513587;28;20047;-62
2023/09/14 22:26:46;;;;;;;4.75;1.30;;;;;;;12.77;nan;100415.13;10518474;28;20052;-62
2023/09/14 22:31:48;;;;;;;2.00;1.42;;;;;;;12.76;nan;100412.59;10511812;28;20314;-62
2023/09/14 22:36:50;;;;;;;3.80;1.30;;;;;;;12.66;nan;100408.84;10507005;28;20036;-62
2023/09/14 22:41:53;;;;;;;2.88;1.30;;;;;;;12.55;nan;100408.63;10508329;28;20554;-62
2023/09/14 22:46:55;;;;;;;2.45;1.15;;;;;;;12.56;nan;100408.53;10511665;28;20416;-62
2023/09/14 22:51:57;;;;;;;3.08;1.35;;;;;;;12.50;nan;100406.28;10507554;28;20196;-62
2023/09/14 22:56:59;;;;;;;1.85;1.20;;;;;;;12.33;nan;100400.38;10509084;28;20686;-62
2023/09/14 23:02:02;;;;;;;3.83;1.75;;;;;;;11.98;nan;100398.00;10512447;28;20043;-62
2023/09/14 23:07:04;;;;;;;3.67;1.20;;;;;;;12.04;nan;100394.19;10508567;28;20043;-62
2023/09/14 23:12:07;;;;;;;2.90;1.25;;;;;;;12.15;nan;100384.75;10513032;28;20400;-62
2023/09/14 23:17:09;;;;;;;3.85;1.35;;;;;;;12.17;nan;100387.28;10516446;28;20144;-62
2023/09/14 23:22:11;;;;;;;2.10;1.23;;;;;;;12.13;nan;100377.88;10506301;28;20419;-62
2023/09/14 23:27:13;;;;;;;3.95;1.83;;;;;;;11.99;nan;100378.72;10507513;28;20487;-62
2023/09/14 23:32:15;;;;;;;2.63;1.10;;;;;;;11.92;nan;100387.03;10507654;28;20079;-62
2023/09/14 23:37:17;;;;;;;4.15;1.55;;;;;;;11.93;nan;100386.09;10505015;28;20119;-62
2023/09/14 23:42:20;;;;;;;4.68;1.48;;;;;;;11.93;nan;100386.09;10506888;28;20158;-62
2023/09/14 23:47:22;;;;;;;3.10;1.40;;;;;;;11.94;nan;100372.91;10511116;28;20155;-62